createdAt,value
2019-02-02T00:01:15.951Z,56.65
2019-02-02T00:03:43.038Z,53.78
2019-02-02T00:06:10.099Z,56.55
2019-02-02T00:08:37.278Z,58.38
2019-02-02T00:11:04.315Z,56.58
2019-02-02T00:13:31.397Z,53.58
2019-02-02T00:15:58.481Z,59.98
2019-02-02T00:18:25.520Z,59.83
2019-02-02T00:20:52.570Z,65.10
2019-02-02T00:23:19.682Z,58.05
2019-02-02T00:25:46.746Z,53.10
2019-02-02T00:28:13.803Z,55.30
2019-02-02T00:30:40.835Z,57.30
2019-02-02T00:33:07.884Z,53.25
2019-02-02T00:35:34.967Z,61.83
2019-02-02T00:38:02.044Z,53.15
2019-02-02T00:40:29.083Z,51.08
2019-02-02T00:42:56.129Z,56.10
2019-02-02T00:45:23.175Z,58.42
2019-02-02T00:47:50.389Z,57.98
2019-02-02T00:50:17.646Z,53.13
2019-02-02T00:52:44.694Z,51.50
2019-02-02T00:55:11.904Z,50.95
2019-02-02T00:57:38.977Z,46.37
2019-02-02T01:00:08.097Z,56.02
2019-02-02T01:02:35.150Z,48.13
2019-02-02T01:05:02.217Z,44.42
2019-02-02T01:07:29.275Z,52.62
2019-02-02T01:09:56.355Z,44.15
2019-02-02T01:12:23.510Z,47.17
2019-02-02T01:14:50.562Z,57.17
2019-02-02T01:17:17.720Z,58.85
2019-02-02T01:19:44.772Z,50.60
2019-02-02T01:22:11.809Z,52.93
2019-02-02T01:24:38.866Z,47.13
2019-02-02T01:27:05.960Z,52.05
2019-02-02T01:29:33.055Z,52.48
2019-02-02T01:32:00.093Z,47.08
2019-02-02T01:34:27.143Z,46.33
2019-02-02T01:36:54.168Z,43.28
2019-02-02T01:39:21.223Z,46.77
2019-02-02T01:41:48.268Z,48.95
2019-02-02T01:44:15.300Z,42.53
2019-02-02T01:46:42.384Z,47.15
2019-02-02T01:49:09.430Z,50.17
2019-02-02T01:51:36.492Z,53.52
2019-02-02T01:54:03.510Z,47.80
2019-02-02T01:56:30.589Z,52.90
2019-02-02T01:58:57.615Z,44.42
2019-02-02T02:01:24.658Z,55.70
2019-02-02T02:03:51.692Z,50.50
2019-02-02T02:06:18.745Z,49.50
2019-02-02T02:08:45.764Z,50.95
2019-02-02T02:11:12.799Z,54.98
2019-02-02T02:13:39.879Z,47.83
2019-02-02T02:16:06.983Z,53.38
2019-02-02T02:18:34.024Z,57.03
2019-02-02T02:21:01.053Z,53.15
2019-02-02T02:23:28.092Z,48.25
2019-02-02T02:25:55.128Z,48.73
2019-02-02T02:28:28.141Z,51.55
2019-02-02T02:30:51.119Z,49.90
2019-02-02T02:33:18.170Z,48.75
2019-02-02T02:35:45.201Z,46.85
2019-02-02T02:38:12.229Z,62.53
2019-02-02T02:40:39.271Z,59.05
2019-02-02T02:43:06.325Z,46.83
2019-02-02T02:45:33.361Z,49.93
2019-02-02T02:48:00.379Z,47.05
2019-02-02T02:50:27.443Z,54.95
2019-02-02T02:52:54.473Z,53.73
2019-02-02T02:55:21.547Z,40.65
2019-02-02T02:57:48.590Z,47.45
2019-02-02T03:00:17.714Z,50.88
2019-02-02T03:02:44.753Z,53.25
2019-02-02T03:05:12.599Z,47.45
2019-02-02T03:07:39.655Z,53.05
2019-02-02T03:10:08.615Z,45.23
2019-02-02T03:12:35.663Z,50.43
2019-02-02T03:15:03.801Z,43.42
2019-02-02T03:17:30.959Z,52.33
2019-02-02T03:19:58.012Z,47.43
2019-02-02T03:22:25.057Z,50.03
2019-02-02T03:24:52.113Z,46.08
2019-02-02T03:27:19.154Z,47.05
2019-02-02T03:29:46.205Z,49.38
2019-02-02T03:32:13.225Z,53.20
2019-02-02T03:34:40.283Z,51.33
2019-02-02T03:37:07.321Z,52.27
2019-02-02T03:39:34.386Z,50.83
2019-02-02T03:42:01.417Z,46.77
2019-02-02T03:44:28.452Z,53.08
2019-02-02T03:47:06.706Z,57.33
2019-02-02T03:49:33.737Z,52.08
2019-02-02T03:52:00.800Z,46.98
2019-02-02T03:54:27.848Z,41.48
2019-02-02T03:56:54.911Z,50.43
2019-02-02T03:59:21.947Z,46.63
2019-02-02T04:01:49.010Z,45.20
2019-02-02T04:04:16.031Z,43.13
2019-02-02T04:06:43.083Z,42.50
2019-02-02T04:09:10.128Z,44.90
2019-02-02T04:11:37.180Z,47.27
2019-02-02T04:14:04.334Z,43.40
2019-02-02T04:16:31.444Z,43.20
2019-02-02T04:18:58.596Z,42.33
2019-02-02T04:21:25.627Z,47.17
2019-02-02T04:23:52.670Z,55.25
2019-02-02T04:26:19.709Z,43.02
2019-02-02T04:28:46.754Z,45.17
2019-02-02T04:31:13.796Z,49.33
2019-02-02T04:33:40.849Z,51.02
2019-02-02T04:36:07.887Z,42.90
2019-02-02T04:38:34.920Z,43.73
2019-02-02T04:41:01.970Z,42.62
2019-02-02T04:43:29.028Z,50.40
2019-02-02T04:45:56.095Z,44.53
2019-02-02T04:48:23.143Z,49.15
2019-02-02T04:50:50.212Z,46.80
2019-02-02T04:53:17.245Z,49.27
2019-02-02T04:55:44.287Z,50.55
2019-02-02T04:58:11.451Z,46.77
2019-02-02T05:00:38.505Z,50.03
2019-02-02T05:03:05.547Z,48.90
2019-02-02T05:05:32.699Z,50.45
2019-02-02T05:07:59.777Z,44.05
2019-02-02T05:10:26.822Z,49.03
2019-02-02T05:12:53.875Z,59.35
2019-02-02T05:15:20.938Z,57.10
2019-02-02T05:17:48.091Z,49.90
2019-02-02T05:20:15.249Z,46.20
2019-02-02T05:22:42.321Z,46.35
2019-02-02T05:25:09.457Z,50.45
2019-02-02T05:27:36.505Z,57.23
2019-02-02T05:30:06.225Z,54.25
2019-02-02T05:32:33.261Z,52.80
2019-02-02T05:35:00.502Z,47.50
2019-02-02T05:37:27.671Z,43.95
2019-02-02T05:39:54.751Z,47.20
2019-02-02T05:42:21.802Z,49.80
2019-02-02T05:44:49.012Z,54.35
2019-02-02T05:47:16.003Z,57.95
2019-02-02T05:49:43.046Z,56.88
2019-02-02T05:52:10.088Z,46.05
2019-02-02T05:54:37.157Z,46.92
2019-02-02T05:57:04.229Z,49.90
2019-02-02T05:59:31.278Z,46.35
2019-02-02T06:01:58.313Z,44.08
2019-02-02T06:04:25.389Z,43.55
2019-02-02T06:06:52.444Z,47.17
2019-02-02T06:09:19.498Z,52.17
2019-02-02T06:11:46.563Z,40.10
2019-02-02T06:14:13.635Z,43.42
2019-02-02T06:16:40.690Z,40.73
2019-02-02T06:19:07.742Z,44.20
2019-02-02T06:21:34.816Z,38.70
2019-02-02T06:24:01.868Z,36.95
2019-02-02T06:26:28.934Z,36.45
2019-02-02T06:28:55.984Z,37.80
2019-02-02T06:31:23.134Z,43.48
2019-02-02T06:33:50.188Z,45.60
2019-02-02T06:36:17.256Z,48.90
2019-02-02T06:38:44.338Z,48.87
2019-02-02T06:41:11.400Z,51.65
2019-02-02T06:43:38.474Z,43.73
2019-02-02T06:46:05.540Z,54.67
2019-02-02T06:48:32.573Z,50.38
2019-02-02T06:50:59.714Z,44.08
2019-02-02T06:53:26.772Z,47.08
2019-02-02T06:55:53.913Z,52.93
2019-02-02T06:58:21.017Z,57.65
2019-02-02T07:00:48.085Z,47.70
2019-02-02T07:03:15.162Z,59.90
2019-02-02T07:05:42.226Z,52.15
2019-02-02T07:08:09.296Z,58.87
2019-02-02T07:10:36.360Z,51.40
2019-02-02T07:13:03.506Z,53.40
2019-02-02T07:15:30.610Z,48.78
2019-02-02T07:17:57.664Z,58.68
2019-02-02T07:20:24.821Z,51.50
2019-02-02T07:22:51.889Z,59.58
2019-02-02T07:25:18.945Z,60.00
2019-02-02T07:27:46.021Z,55.12
2019-02-02T07:30:28.140Z,57.03
2019-02-02T07:32:46.522Z,47.25
2019-02-02T07:35:13.589Z,55.28
2019-02-02T07:37:40.657Z,57.00
2019-02-02T07:40:09.046Z,56.02
2019-02-02T07:42:36.114Z,53.83
2019-02-02T07:45:03.995Z,52.58
2019-02-02T07:47:31.045Z,69.12
2019-02-02T07:49:58.087Z,75.37
2019-02-02T07:52:25.161Z,60.63
2019-02-02T07:54:52.276Z,70.60
2019-02-02T07:57:19.299Z,69.22
2019-02-02T07:59:46.422Z,53.90
2019-02-02T08:02:13.483Z,72.37
2019-02-02T08:04:40.546Z,74.60
2019-02-02T08:07:07.615Z,64.80
2019-02-02T08:09:34.691Z,69.55
2019-02-02T08:12:01.741Z,59.23
2019-02-02T08:14:28.850Z,61.92
2019-02-02T08:16:56.000Z,63.05
2019-02-02T08:19:25.603Z,53.63
2019-02-02T08:21:52.072Z,63.48
2019-02-02T08:24:20.674Z,52.30
2019-02-02T08:26:48.076Z,50.88
2019-02-02T08:29:15.127Z,63.30
2019-02-02T08:31:42.180Z,61.58
2019-02-02T08:34:09.244Z,57.03
2019-02-02T08:36:36.332Z,72.40
2019-02-02T08:39:07.264Z,77.85
2019-02-02T08:41:34.340Z,74.03
2019-02-02T08:44:01.415Z,69.47
2019-02-02T08:46:28.700Z,67.05
2019-02-02T08:48:55.739Z,62.30
2019-02-02T08:51:22.790Z,72.78
2019-02-02T08:53:49.861Z,56.85
2019-02-02T08:56:16.925Z,56.55
2019-02-02T08:58:44.000Z,70.67
2019-02-02T09:01:11.046Z,50.28
2019-02-02T09:03:38.142Z,47.43
2019-02-02T09:06:05.244Z,42.83
2019-02-02T09:08:32.886Z,41.48
2019-02-02T09:10:59.961Z,51.37
2019-02-02T09:13:27.247Z,44.55
2019-02-02T09:15:56.803Z,45.45
2019-02-02T09:18:23.828Z,49.33
2019-02-02T09:20:50.897Z,48.83
2019-02-02T09:23:17.963Z,52.17
2019-02-02T09:25:45.059Z,41.80
2019-02-02T09:28:12.117Z,57.95
2019-02-02T09:30:39.198Z,65.35
2019-02-02T09:33:06.573Z,56.75
2019-02-02T09:35:33.659Z,63.40
2019-02-02T09:38:00.740Z,63.87
2019-02-02T09:40:28.159Z,82.53
2019-02-02T09:42:55.233Z,106.30
2019-02-02T09:45:22.760Z,91.55
2019-02-02T09:47:49.850Z,75.83
2019-02-02T09:50:18.561Z,69.15
2019-02-02T09:52:45.620Z,65.95
2019-02-02T09:55:14.172Z,43.90
2019-02-02T09:57:41.353Z,54.25
2019-02-02T10:00:12.356Z,57.73
2019-02-02T10:02:39.510Z,54.83
2019-02-02T10:05:06.617Z,51.80
2019-02-02T10:07:33.703Z,42.08
2019-02-02T10:10:00.775Z,44.18
2019-02-02T10:12:27.843Z,35.65
2019-02-02T10:14:54.972Z,43.75
2019-02-02T10:17:22.177Z,44.35
2019-02-02T10:19:49.235Z,44.00
2019-02-02T10:22:16.325Z,50.12
2019-02-02T10:24:43.374Z,57.80
2019-02-02T10:27:10.448Z,51.92
2019-02-02T10:29:37.503Z,47.25
2019-02-02T10:32:04.605Z,38.50
2019-02-02T10:34:31.678Z,38.48
2019-02-02T10:36:58.761Z,36.58
2019-02-02T10:39:25.838Z,32.73
2019-02-02T10:41:52.903Z,34.58
2019-02-02T10:44:20.023Z,31.02
2019-02-02T10:46:47.102Z,33.42
2019-02-02T10:49:14.204Z,30.10
2019-02-02T10:51:41.274Z,35.00
2019-02-02T10:54:08.363Z,24.82
2019-02-02T10:56:35.436Z,33.45
2019-02-02T10:59:02.567Z,40.92
2019-02-02T11:01:29.634Z,31.15
2019-02-02T11:03:56.967Z,31.33
2019-02-02T11:06:24.142Z,29.82
2019-02-02T11:08:51.378Z,28.52
2019-02-02T11:11:18.697Z,32.70
2019-02-02T11:13:45.879Z,32.85
2019-02-02T11:16:13.047Z,32.48
2019-02-02T11:18:40.305Z,37.93
2019-02-02T11:21:07.447Z,36.60
2019-02-02T11:23:34.611Z,43.08
2019-02-02T11:26:01.713Z,46.05
2019-02-02T11:28:28.755Z,67.03
2019-02-02T11:30:55.825Z,53.13
2019-02-02T11:33:23.319Z,34.53
2019-02-02T11:35:50.432Z,41.95
2019-02-02T11:38:17.539Z,53.50
2019-02-02T11:40:44.588Z,18.97
2019-02-02T11:43:11.680Z,25.20
2019-02-02T11:45:38.959Z,16.60
2019-02-02T11:48:06.068Z,23.97
2019-02-02T11:50:33.155Z,36.83
2019-02-02T11:53:00.309Z,29.40
2019-02-02T11:55:27.441Z,21.17
2019-02-02T11:57:54.624Z,20.10
2019-02-02T12:00:26.547Z,21.10
2019-02-02T12:02:53.875Z,11.60
2019-02-02T12:05:20.985Z,11.03
2019-02-02T12:07:48.083Z,13.70
2019-02-02T12:10:16.588Z,10.20
2019-02-02T12:12:43.684Z,9.90
2019-02-02T12:15:12.218Z,11.10
2019-02-02T12:17:39.311Z,9.30
2019-02-02T12:20:08.145Z,7.55
2019-02-02T12:22:35.227Z,8.08
2019-02-02T12:25:02.448Z,8.60
2019-02-02T12:27:29.568Z,9.88
2019-02-02T12:29:57.935Z,8.78
2019-02-02T12:32:34.055Z,7.10
2019-02-02T12:35:02.600Z,7.35
2019-02-02T12:37:30.147Z,7.67
2019-02-02T12:39:57.259Z,9.33
2019-02-02T12:42:24.351Z,11.83
2019-02-02T12:44:51.406Z,13.18
2019-02-02T12:47:20.768Z,11.63
2019-02-02T12:49:47.471Z,10.40
2019-02-02T12:52:14.543Z,11.93
2019-02-02T12:54:41.621Z,10.05
2019-02-02T12:57:08.700Z,10.78
2019-02-02T12:59:38.008Z,11.43
2019-02-02T13:02:04.711Z,18.05
2019-02-02T13:04:31.771Z,12.18
2019-02-02T13:06:58.811Z,13.93
2019-02-02T13:09:25.918Z,16.73
2019-02-02T13:11:55.969Z,12.47
2019-02-02T13:14:21.979Z,16.27
2019-02-02T13:16:50.182Z,10.32
2019-02-02T13:19:17.420Z,18.35
2019-02-02T13:21:44.464Z,14.43
2019-02-02T13:24:11.526Z,18.85
2019-02-02T13:26:38.628Z,15.72
2019-02-02T13:29:05.791Z,22.80
2019-02-02T13:31:32.840Z,16.77
2019-02-02T13:33:59.890Z,20.35
2019-02-02T13:36:26.949Z,19.10
2019-02-02T13:38:54.003Z,16.62
2019-02-02T13:41:21.176Z,21.00
2019-02-02T13:43:48.267Z,22.20
2019-02-02T13:46:15.337Z,15.68
2019-02-02T13:48:42.394Z,13.22
2019-02-02T13:51:09.441Z,13.30
2019-02-02T13:53:36.536Z,18.12
2019-02-02T13:56:03.714Z,17.57
2019-02-02T13:58:30.739Z,15.98
2019-02-02T14:00:57.842Z,15.35
2019-02-02T14:03:24.886Z,17.05
2019-02-02T14:05:51.997Z,14.20
2019-02-02T14:08:19.060Z,14.30
2019-02-02T14:10:46.429Z,16.23
2019-02-02T14:13:13.506Z,13.13
2019-02-02T14:15:40.631Z,15.08
2019-02-02T14:18:07.731Z,13.85
2019-02-02T14:20:34.893Z,17.65
2019-02-02T14:23:01.928Z,15.85
2019-02-02T14:25:28.994Z,20.88
2019-02-02T14:27:56.066Z,22.15
2019-02-02T14:30:24.403Z,25.17
2019-02-02T14:32:54.494Z,26.27
2019-02-02T14:35:21.674Z,24.50
2019-02-02T14:37:48.780Z,27.07
2019-02-02T14:40:16.916Z,24.63
2019-02-02T14:42:44.081Z,26.15
2019-02-02T14:45:13.325Z,26.68
2019-02-02T14:47:40.419Z,30.82
2019-02-02T14:50:10.564Z,31.40
2019-02-02T14:52:37.709Z,48.42
2019-02-02T14:55:06.067Z,34.15
2019-02-02T14:57:33.213Z,27.10
2019-02-02T15:00:00.272Z,26.87
2019-02-02T15:02:27.393Z,29.27
2019-02-02T15:04:55.645Z,25.40
2019-02-02T15:07:22.741Z,25.02
2019-02-02T15:09:49.848Z,26.85
2019-02-02T15:12:16.974Z,24.82
2019-02-02T15:14:44.105Z,28.15
2019-02-02T15:17:11.467Z,61.60
2019-02-02T15:19:39.164Z,79.67
2019-02-02T15:22:06.263Z,36.93
2019-02-02T15:24:33.371Z,31.12
2019-02-02T15:27:00.494Z,27.62
2019-02-02T15:29:29.457Z,28.23
2019-02-02T15:31:56.640Z,23.47
2019-02-02T15:34:26.106Z,25.32
2019-02-02T15:36:53.230Z,85.62
2019-02-02T15:39:20.676Z,26.30
2019-02-02T15:41:52.907Z,25.25
2019-02-02T15:44:16.787Z,33.00
2019-02-02T15:46:49.168Z,30.12
2019-02-02T15:49:13.234Z,27.70
2019-02-02T15:51:40.689Z,31.10
2019-02-02T15:54:08.809Z,24.85
2019-02-02T15:56:35.939Z,25.85
2019-02-02T15:59:03.151Z,29.07
2019-02-02T16:01:30.274Z,27.13
2019-02-02T16:03:57.683Z,26.60
2019-02-02T16:06:24.802Z,30.68
2019-02-02T16:08:51.928Z,23.77
2019-02-02T16:11:19.060Z,27.58
2019-02-02T16:13:46.208Z,27.27
2019-02-02T16:16:13.372Z,30.15
2019-02-02T16:18:40.612Z,28.05
2019-02-02T16:21:07.720Z,24.10
2019-02-02T16:23:34.880Z,27.42
2019-02-02T16:26:02.290Z,28.25
2019-02-02T16:28:29.436Z,32.78
2019-02-02T16:30:56.520Z,29.85
2019-02-02T16:33:23.645Z,31.17
2019-02-02T16:35:50.750Z,31.05
2019-02-02T16:38:17.864Z,28.73
2019-02-02T16:40:45.303Z,33.88
2019-02-02T16:43:12.464Z,28.87
2019-02-02T16:45:39.606Z,30.20
2019-02-02T16:48:06.719Z,28.32
2019-02-02T16:50:33.861Z,31.57
2019-02-02T16:53:00.961Z,32.00
2019-02-02T16:55:28.081Z,29.87
2019-02-02T16:57:55.183Z,35.38
2019-02-02T17:00:24.154Z,35.13
2019-02-02T17:02:51.367Z,30.17
2019-02-02T17:05:18.452Z,52.20
2019-02-02T17:07:46.322Z,46.98
2019-02-02T17:10:16.171Z,46.18
2019-02-02T17:12:43.427Z,52.95
2019-02-02T17:15:10.819Z,50.70
2019-02-02T17:17:37.947Z,49.73
2019-02-02T17:20:08.775Z,59.00
2019-02-02T17:22:35.946Z,58.58
2019-02-02T17:25:04.024Z,55.98
2019-02-02T17:27:31.122Z,48.55
2019-02-02T17:30:00.257Z,60.75
2019-02-02T17:32:27.445Z,49.00
2019-02-02T17:34:54.562Z,49.73
2019-02-02T17:37:21.740Z,55.40
2019-02-02T17:39:48.944Z,48.13
2019-02-02T17:42:16.012Z,49.93
2019-02-02T17:44:43.150Z,46.63
2019-02-02T17:47:10.236Z,50.20
2019-02-02T17:49:37.345Z,58.58
2019-02-02T17:52:04.463Z,68.40
2019-02-02T17:54:31.836Z,79.47
2019-02-02T17:56:59.876Z,72.25
2019-02-02T17:59:29.863Z,68.35
2019-02-02T18:01:56.031Z,68.37
2019-02-02T18:04:26.451Z,59.85
2019-02-02T18:06:54.678Z,59.55
2019-02-02T18:09:22.391Z,66.25
2019-02-02T18:11:49.504Z,65.15
2019-02-02T18:14:16.605Z,58.55
2019-02-02T18:16:43.816Z,49.80
2019-02-02T18:19:11.043Z,69.85
2019-02-02T18:21:38.175Z,57.62
2019-02-02T18:24:05.305Z,52.10
2019-02-02T18:26:32.677Z,42.83
2019-02-02T18:28:59.790Z,55.12
2019-02-02T18:31:26.953Z,49.53
2019-02-02T18:33:54.040Z,61.48
2019-02-02T18:36:21.177Z,64.03
2019-02-02T18:38:50.140Z,65.45
2019-02-02T18:41:17.554Z,67.85
2019-02-02T18:43:46.096Z,99.40
2019-02-02T18:46:13.319Z,141.45
2019-02-02T18:48:40.542Z,130.52
2019-02-02T18:51:08.020Z,191.80
2019-02-02T18:53:35.189Z,185.55
2019-02-02T18:56:13.936Z,131.50
2019-02-02T18:58:41.373Z,142.22
2019-02-02T19:01:08.539Z,169.87
2019-02-02T19:03:36.194Z,220.78
2019-02-02T19:06:03.578Z,126.42
2019-02-02T19:08:31.082Z,195.77
2019-02-02T19:10:58.296Z,181.18
2019-02-02T19:13:25.435Z,169.43
2019-02-02T19:15:55.689Z,135.48
2019-02-02T19:18:22.870Z,317.43
2019-02-02T19:20:50.088Z,193.05
2019-02-02T19:23:24.748Z,250.05
2019-02-02T19:25:47.085Z,206.25
2019-02-02T19:28:14.597Z,160.45
2019-02-02T19:30:42.572Z,154.10
2019-02-02T19:33:12.270Z,165.30
2019-02-02T19:35:39.538Z,135.37
2019-02-02T19:38:07.236Z,140.75
2019-02-02T19:40:35.401Z,104.83
2019-02-02T19:43:03.037Z,99.97
2019-02-02T19:45:30.732Z,98.87
2019-02-02T19:47:58.136Z,96.70
2019-02-02T19:50:26.126Z,89.77
2019-02-02T19:52:53.553Z,99.25
2019-02-02T19:55:20.870Z,103.15
2019-02-02T19:57:50.543Z,93.45
2019-02-02T20:00:29.660Z,96.02
2019-02-02T20:02:57.097Z,99.75
2019-02-02T20:05:28.788Z,94.13
2019-02-02T20:07:54.913Z,97.53
2019-02-02T20:10:22.815Z,87.40
2019-02-02T20:12:52.992Z,90.20
2019-02-02T20:15:21.835Z,87.40
2019-02-02T20:17:49.129Z,91.25
2019-02-02T20:20:20.836Z,99.25
2019-02-02T20:22:48.395Z,91.05
2019-02-02T20:25:15.722Z,100.30
2019-02-02T20:27:43.938Z,101.80
2019-02-02T20:30:14.048Z,112.08
2019-02-02T20:32:42.282Z,115.00
2019-02-02T20:35:10.457Z,109.65
2019-02-02T20:37:39.536Z,99.62
2019-02-02T20:40:09.318Z,106.97
2019-02-02T20:42:36.907Z,107.12
2019-02-02T20:45:06.760Z,102.92
2019-02-02T20:47:33.998Z,102.97
2019-02-02T20:50:01.223Z,93.22
2019-02-02T20:52:28.719Z,96.35
2019-02-02T20:54:55.955Z,113.62
2019-02-02T20:57:23.264Z,94.70
2019-02-02T20:59:50.726Z,97.35
2019-02-02T21:02:17.998Z,92.47
2019-02-02T21:04:45.173Z,94.52
2019-02-02T21:07:12.419Z,84.97
2019-02-02T21:09:39.610Z,86.12
2019-02-02T21:12:07.097Z,86.82
2019-02-02T21:14:34.308Z,88.80
2019-02-02T21:17:01.482Z,86.17
2019-02-02T21:19:28.927Z,87.40
2019-02-02T21:21:56.278Z,85.65
2019-02-02T21:24:23.439Z,94.28
2019-02-02T21:26:50.819Z,91.47
2019-02-02T21:29:19.927Z,94.17
2019-02-02T21:31:47.675Z,92.75
2019-02-02T21:34:14.939Z,87.50
2019-02-02T21:36:42.108Z,87.27
2019-02-02T21:39:09.285Z,84.15
2019-02-02T21:41:36.444Z,87.60
2019-02-02T21:44:04.019Z,89.20
2019-02-02T21:46:31.167Z,100.07
2019-02-02T21:48:58.881Z,95.12
2019-02-02T21:51:26.039Z,104.58
2019-02-02T21:53:53.512Z,95.47
2019-02-02T21:56:20.658Z,103.58
2019-02-02T21:58:47.820Z,93.22
2019-02-02T22:01:23.845Z,100.65
2019-02-02T22:03:44.293Z,103.70
2019-02-02T22:06:15.670Z,116.20
2019-02-02T22:08:40.884Z,99.77
2019-02-02T22:11:08.035Z,100.55
2019-02-02T22:13:35.208Z,121.00
2019-02-02T22:16:02.367Z,112.83
2019-02-02T22:18:29.497Z,118.10
2019-02-02T22:20:56.615Z,102.15
2019-02-02T22:23:23.773Z,109.78
2019-02-02T22:25:50.871Z,107.40
2019-02-02T22:28:18.011Z,113.37
2019-02-02T22:30:45.104Z,109.05
2019-02-02T22:33:12.198Z,100.22
2019-02-02T22:35:39.517Z,87.88
2019-02-02T22:38:06.837Z,124.65
2019-02-02T22:40:33.940Z,121.65
2019-02-02T22:43:01.028Z,105.47
2019-02-02T22:45:28.145Z,104.87
2019-02-02T22:47:55.264Z,106.03
2019-02-02T22:50:23.947Z,103.35
2019-02-02T22:52:51.056Z,90.42
2019-02-02T22:55:18.583Z,78.25
2019-02-02T22:57:45.678Z,94.47
2019-02-02T23:01:05.680Z,94.15
2019-02-02T23:03:47.977Z,108.42
2019-02-02T23:06:39.286Z,92.05
2019-02-02T23:09:56.563Z,87.60
2019-02-02T23:13:23.464Z,90.12
2019-02-02T23:16:21.984Z,83.78
2019-02-02T23:18:49.452Z,87.47
2019-02-02T23:21:16.510Z,89.58
2019-02-02T23:23:43.581Z,76.37
2019-02-02T23:26:10.673Z,74.47
2019-02-02T23:28:37.724Z,89.42
2019-02-02T23:31:04.798Z,80.28
2019-02-02T23:33:31.894Z,83.33
2019-02-02T23:35:59.141Z,68.42
2019-02-02T23:38:26.211Z,81.15
2019-02-02T23:40:53.268Z,77.67
2019-02-02T23:43:20.415Z,78.83
2019-02-02T23:45:47.471Z,75.67
2019-02-02T23:48:14.533Z,71.28
2019-02-02T23:50:41.888Z,69.32
2019-02-02T23:53:08.989Z,72.42
2019-02-02T23:55:36.016Z,69.25
2019-02-02T23:58:03.315Z,65.92
